Dades de l'estació automàtica Tírvia
Resum diari
21:30 TU| Temperatura mitjana | 11.6 °C | |
|---|---|---|
| Temperatura màxima | 17.9 °C | 11:45 TU |
| Temperatura mínima | 7.5 °C | 21:59 TU |
| Humitat relativa mitjana | 86% | |
| Precipitació acumulada | 7.9 mm | |
| Ratxa màxima del vent (6 m) | 33.5 km/h - 338º | 19:55 TU |
| Pressió atmosfèrica mitjana | 1011.7 hPa | |
| Irradiació solar global | 11.7 MJ/m2 | |
El tram horari està expressat en Temps Universal (TU). Cal sumar una hora en horari d'hivern i dues en horari d'estiu per passar a l'hora oficial.
Tírvia
| Municipi | Tírvia |
|---|---|
| Comarca | Pallars Sobirà |
| Altitud | 955 m |
| Data alta | 11.01.2018 |
| Estat actual | Operativa |
| Període TU |
TM °C |
TX °C |
TN °C |
HRM % |
PPT mm |
VVM (6 m) km/h |
DVM (6 m) graus |
VVX (6 m) km/h |
PM hPa |
RS W/m2 |
|---|---|---|---|---|---|---|---|---|---|---|
| 00:00 - 00:30 | 10.3 | 10.4 | 10.1 | 93 | 0.0 | 0.7 | 77 | 6.8 | 1013.8 | 0 |
| 00:30 - 01:00 | 10.1 | 10.5 | 9.8 | 93 | 0.0 | 1.1 | 156 | 6.5 | 1013.7 | 0 |
| 01:00 - 01:30 | 9.9 | 10.0 | 9.7 | 96 | 0.0 | 0.7 | 156 | 3.6 | 1013.6 | 0 |
| 01:30 - 02:00 | 9.5 | 9.7 | 9.3 | 98 | 0.0 | 3.2 | 22 | 12.2 | 1013.7 | 0 |
| 02:00 - 02:30 | 9.1 | 9.2 | 8.9 | 99 | 0.0 | 1.8 | 77 | 5.8 | 1013.9 | 0 |
| 02:30 - 03:00 | 9.1 | 9.1 | 9.0 | 99 | 0.0 | 1.4 | 53 | 4.3 | 1013.9 | 0 |
| 03:00 - 03:30 | 8.9 | 9.0 | 8.8 | 99 | 0.0 | 0.0 | 0 | 1.8 | 1013.9 | 0 |
| 03:30 - 04:00 | 9.0 | 9.1 | 8.9 | 99 | 0.0 | 0.4 | 151 | 2.2 | 1013.9 | 0 |
| 04:00 - 04:30 | 8.8 | 8.9 | 8.7 | 100 | 0.0 | 0.0 | 0 | 0.0 | 1013.9 | 0 |
| 04:30 - 05:00 | 8.8 | 9.0 | 8.7 | 100 | 0.0 | 0.4 | 230 | 2.9 | 1014.0 | 0 |
| 05:00 - 05:30 | 9.1 | 9.2 | 9.0 | 100 | 0.9 | 1.1 | 85 | 4.3 | 1014.0 | 10 |
| 05:30 - 06:00 | 9.4 | 9.6 | 9.2 | 100 | 0.9 | 1.1 | 59 | 4.0 | 1013.9 | 18 |
| 06:00 - 06:30 | 9.6 | 9.9 | 9.5 | 99 | 0.6 | 4.3 | 16 | 13.0 | 1013.7 | 62 |
| 06:30 - 07:00 | 10.0 | 10.3 | 9.9 | 99 | 0.0 | 1.8 | 194 | 7.6 | 1013.6 | 161 |
| 07:00 - 07:30 | 10.7 | 11.3 | 10.3 | 97 | 0.0 | 1.8 | 209 | 5.8 | 1013.4 | 210 |
| 07:30 - 08:00 | 11.8 | 12.1 | 11.2 | 93 | 0.0 | 0.7 | 275 | 3.6 | 1012.8 | 282 |
| 08:00 - 08:30 | 12.2 | 13.0 | 11.8 | 88 | 0.0 | 0.4 | 299 | 3.6 | 1012.5 | 352 |
| 08:30 - 09:00 | 12.9 | 13.7 | 12.3 | 79 | 0.0 | 1.1 | 232 | 5.0 | 1012.0 | 341 |
| 09:00 - 09:30 | 13.3 | 14.7 | 12.3 | 76 | 0.0 | 4.3 | 156 | 9.4 | 1011.6 | 390 |
| 09:30 - 10:00 | 14.2 | 15.9 | 13.0 | 71 | 0.0 | 3.6 | 144 | 8.6 | 1011.0 | 571 |
| 10:00 - 10:30 | 15.8 | 16.5 | 15.3 | 61 | 0.0 | 1.4 | 239 | 4.7 | 1010.1 | 498 |
| 10:30 - 11:00 | 16.2 | 16.7 | 15.5 | 59 | 0.0 | 2.9 | 62 | 9.7 | 1009.7 | 289 |
| 11:00 - 11:30 | 15.9 | 16.3 | 15.4 | 59 | 0.0 | 4.0 | 149 | 13.0 | 1009.6 | 353 |
| 11:30 - 12:00 | 16.8 | 17.9 | 15.8 | 56 | 0.0 | 4.7 | 142 | 25.9 | 1009.0 | 625 |
| 12:00 - 12:30 | 16.4 | 17.5 | 15.4 | 54 | 0.0 | 11.9 | 120 | 26.6 | 1009.0 | 791 |
| 12:30 - 13:00 | 15.7 | 16.7 | 15.1 | 56 | 0.0 | 7.2 | 54 | 21.2 | 1009.2 | 283 |
| 13:00 - 13:30 | 15.4 | 15.9 | 15.1 | 58 | 0.0 | 7.6 | 30 | 18.7 | 1009.0 | 331 |
| 13:30 - 14:00 | 15.2 | 16.0 | 14.5 | 59 | 0.0 | 6.5 | 31 | 16.2 | 1008.7 | 121 |
| 14:00 - 14:30 | 13.4 | 14.8 | 12.5 | 69 | 0.6 | 4.0 | 178 | 20.5 | 1010.1 | 88 |
| 14:30 - 15:00 | 12.4 | 12.6 | 12.1 | 83 | 0.2 | 2.9 | 43 | 11.2 | 1010.5 | 113 |
| 15:00 - 15:30 | 12.9 | 13.4 | 12.1 | 78 | 0.1 | 4.7 | 32 | 11.9 | 1009.9 | 231 |
| 15:30 - 16:00 | 12.8 | 13.4 | 12.4 | 79 | 0.0 | 5.8 | 17 | 15.1 | 1009.7 | 108 |
| 16:00 - 16:30 | 12.2 | 12.4 | 11.8 | 83 | 0.5 | 2.2 | 187 | 7.2 | 1010.1 | 17 |
| 16:30 - 17:00 | 11.5 | 11.7 | 11.3 | 95 | 1.4 | 2.5 | 11 | 10.8 | 1010.6 | 55 |
| 17:00 - 17:30 | 11.7 | 12.1 | 11.2 | 95 | 0.1 | 4.3 | 5 | 11.2 | 1010.2 | 142 |
| 17:30 - 18:00 | 11.6 | 12.2 | 11.3 | 93 | 0.0 | 2.2 | 34 | 8.3 | 1010.0 | 63 |
| 18:00 - 18:30 | 11.2 | 11.4 | 11.1 | 93 | 0.0 | 0.7 | 153 | 4.7 | 1009.9 | 22 |
| 18:30 - 19:00 | 10.9 | 11.1 | 10.7 | 95 | 0.0 | 5.0 | 186 | 11.5 | 1010.7 | 0 |
| 19:00 - 19:30 | 10.6 | 10.7 | 10.4 | 94 | 0.7 | 1.8 | 123 | 11.9 | 1011.4 | 0 |
| 19:30 - 20:00 | 10.0 | 10.4 | 9.2 | 95 | 1.6 | 5.4 | 325 | 33.5 | 1012.1 | 0 |
| 20:00 - 20:30 | 8.7 | 9.1 | 8.5 | 92 | 0.3 | 6.1 | 23 | 18.4 | 1012.9 | 0 |
| 20:30 - 21:00 | 8.6 | 8.9 | 8.5 | 91 | 0.0 | 5.4 | 7 | 18.4 | 1012.9 | 0 |
| 21:00 - 21:30 | 8.7 | 8.9 | 8.4 | 92 | 0.0 | 2.2 | 91 | 14.4 | 1012.8 | 0 |
| 21:30 - 22:00 | 8.0 | 8.4 | 7.5 | 96 | 0.0 | 1.4 | 116 | 5.0 | 1013.1 | 0 |
| 22:00 - 22:30 | (s/d) | (s/d) | (s/d) | (s/d) | (s/d) | (s/d) | (s/d) | (s/d) | (s/d) | (s/d) |
Les dades en taronja només han passat un control de qualitat automàtic. Resta pendent la seva validació definitiva.